sensor_id;sensor_type;location;lat;lon;timestamp;temperature;humidity
20973;DHT22;10645;52.370;13.314;2023-11-21T00:00:38;8.60;99.90
20973;DHT22;10645;52.370;13.314;2023-11-21T00:03:04;8.60;99.90
20973;DHT22;10645;52.370;13.314;2023-11-21T00:05:30;8.60;99.90
20973;DHT22;10645;52.370;13.314;2023-11-21T00:07:56;8.60;99.90
20973;DHT22;10645;52.370;13.314;2023-11-21T00:10:22;8.60;99.90
20973;DHT22;10645;52.370;13.314;2023-11-21T00:12:48;8.60;99.90
20973;DHT22;10645;52.370;13.314;2023-11-21T00:15:14;8.60;99.90
20973;DHT22;10645;52.370;13.314;2023-11-21T00:17:41;8.60;99.90
20973;DHT22;10645;52.370;13.314;2023-11-21T00:20:08;8.70;99.90
20973;DHT22;10645;52.370;13.314;2023-11-21T00:22:38;8.60;99.90
20973;DHT22;10645;52.370;13.314;2023-11-21T00:25:04;8.60;99.90
20973;DHT22;10645;52.370;13.314;2023-11-21T00:27:31;8.60;99.90
20973;DHT22;10645;52.370;13.314;2023-11-21T00:29:58;8.60;99.90
20973;DHT22;10645;52.370;13.314;2023-11-21T00:32:24;8.60;99.90
20973;DHT22;10645;52.370;13.314;2023-11-21T00:34:50;8.60;99.90
20973;DHT22;10645;52.370;13.314;2023-11-21T00:37:16;8.60;99.90
20973;DHT22;10645;52.370;13.314;2023-11-21T00:39:42;8.60;99.90
20973;DHT22;10645;52.370;13.314;2023-11-21T00:42:08;8.60;99.90
20973;DHT22;10645;52.370;13.314;2023-11-21T00:44:37;8.50;99.90
20973;DHT22;10645;52.370;13.314;2023-11-21T00:47:03;8.40;99.90
20973;DHT22;10645;52.370;13.314;2023-11-21T00:49:29;8.20;99.90
20973;DHT22;10645;52.370;13.314;2023-11-21T00:51:56;8.10;99.90
20973;DHT22;10645;52.370;13.314;2023-11-21T00:54:23;8.00;99.90
20973;DHT22;10645;52.370;13.314;2023-11-21T00:56:49;7.90;99.90
20973;DHT22;10645;52.370;13.314;2023-11-21T00:59:16;7.80;99.90
20973;DHT22;10645;52.370;13.314;2023-11-21T01:01:42;7.70;99.90
20973;DHT22;10645;52.370;13.314;2023-11-21T01:04:08;7.60;99.90
20973;DHT22;10645;52.370;13.314;2023-11-21T01:06:34;7.50;99.90
20973;DHT22;10645;52.370;13.314;2023-11-21T01:09:00;7.50;99.90
20973;DHT22;10645;52.370;13.314;2023-11-21T01:11:26;7.40;99.90
20973;DHT22;10645;52.370;13.314;2023-11-21T01:13:52;7.30;99.90
20973;DHT22;10645;52.370;13.314;2023-11-21T01:16:19;7.30;99.90
20973;DHT22;10645;52.370;13.314;2023-11-21T01:18:45;7.20;99.90
20973;DHT22;10645;52.370;13.314;2023-11-21T01:21:12;7.20;99.90
20973;DHT22;10645;52.370;13.314;2023-11-21T01:23:38;7.10;99.90
20973;DHT22;10645;52.370;13.314;2023-11-21T01:26:04;7.00;99.90
20973;DHT22;10645;52.370;13.314;2023-11-21T01:28:30;7.00;99.90
20973;DHT22;10645;52.370;13.314;2023-11-21T01:30:57;6.90;99.90
20973;DHT22;10645;52.370;13.314;2023-11-21T01:33:23;6.90;99.90
20973;DHT22;10645;52.370;13.314;2023-11-21T01:35:52;6.90;99.90
20973;DHT22;10645;52.370;13.314;2023-11-21T01:38:21;6.90;99.90
20973;DHT22;10645;52.370;13.314;2023-11-21T01:40:48;6.90;99.90
20973;DHT22;10645;52.370;13.314;2023-11-21T01:43:14;6.70;99.90
20973;DHT22;10645;52.370;13.314;2023-11-21T01:45:40;6.70;99.90
20973;DHT22;10645;52.370;13.314;2023-11-21T01:48:06;6.60;99.90
20973;DHT22;10645;52.370;13.314;2023-11-21T01:50:33;6.60;99.90
20973;DHT22;10645;52.370;13.314;2023-11-21T01:53:00;6.50;99.90
20973;DHT22;10645;52.370;13.314;2023-11-21T01:55:26;6.50;99.90
20973;DHT22;10645;52.370;13.314;2023-11-21T01:57:54;6.50;99.90
20973;DHT22;10645;52.370;13.314;2023-11-21T02:00:21;6.50;99.90
20973;DHT22;10645;52.370;13.314;2023-11-21T02:02:47;6.50;99.90
20973;DHT22;10645;52.370;13.314;2023-11-21T02:05:16;6.40;99.90
20973;DHT22;10645;52.370;13.314;2023-11-21T02:07:46;6.40;99.90
20973;DHT22;10645;52.370;13.314;2023-11-21T02:10:15;6.30;99.90
20973;DHT22;10645;52.370;13.314;2023-11-21T02:12:42;6.30;99.90
20973;DHT22;10645;52.370;13.314;2023-11-21T02:15:10;6.30;99.90
20973;DHT22;10645;52.370;13.314;2023-11-21T02:17:44;6.20;99.90
20973;DHT22;10645;52.370;13.314;2023-11-21T02:20:11;6.30;99.90
20973;DHT22;10645;52.370;13.314;2023-11-21T02:22:42;6.20;99.90
20973;DHT22;10645;52.370;13.314;2023-11-21T02:25:09;6.20;99.90
20973;DHT22;10645;52.370;13.314;2023-11-21T02:27:35;6.20;99.90
20973;DHT22;10645;52.370;13.314;2023-11-21T02:30:01;6.20;99.90
20973;DHT22;10645;52.370;13.314;2023-11-21T02:32:27;6.20;99.90
20973;DHT22;10645;52.370;13.314;2023-11-21T02:34:53;6.20;99.90
20973;DHT22;10645;52.370;13.314;2023-11-21T02:37:27;6.10;99.90
20973;DHT22;10645;52.370;13.314;2023-11-21T02:39:53;6.10;99.90
20973;DHT22;10645;52.370;13.314;2023-11-21T02:42:19;6.10;99.90
20973;DHT22;10645;52.370;13.314;2023-11-21T02:44:45;6.00;99.90
20973;DHT22;10645;52.370;13.314;2023-11-21T02:47:11;6.00;99.90
20973;DHT22;10645;52.370;13.314;2023-11-21T02:49:37;6.00;99.90
20973;DHT22;10645;52.370;13.314;2023-11-21T02:52:03;6.00;99.90
20973;DHT22;10645;52.370;13.314;2023-11-21T02:54:29;6.00;99.90
20973;DHT22;10645;52.370;13.314;2023-11-21T02:56:55;5.90;99.90
20973;DHT22;10645;52.370;13.314;2023-11-21T02:59:21;5.90;99.90
20973;DHT22;10645;52.370;13.314;2023-11-21T03:01:48;5.90;99.90
20973;DHT22;10645;52.370;13.314;2023-11-21T03:04:15;5.90;99.90
20973;DHT22;10645;52.370;13.314;2023-11-21T03:06:44;5.90;99.90
20973;DHT22;10645;52.370;13.314;2023-11-21T03:09:11;5.80;99.90
20973;DHT22;10645;52.370;13.314;2023-11-21T03:11:40;5.80;99.90
20973;DHT22;10645;52.370;13.314;2023-11-21T03:14:06;5.80;99.90
20973;DHT22;10645;52.370;13.314;2023-11-21T03:16:32;5.80;99.90
20973;DHT22;10645;52.370;13.314;2023-11-21T03:18:58;5.80;99.90
20973;DHT22;10645;52.370;13.314;2023-11-21T03:21:25;5.80;99.90
20973;DHT22;10645;52.370;13.314;2023-11-21T03:23:52;5.70;99.90
20973;DHT22;10645;52.370;13.314;2023-11-21T03:26:18;5.80;99.90
20973;DHT22;10645;52.370;13.314;2023-11-21T03:28:44;5.80;99.90
20973;DHT22;10645;52.370;13.314;2023-11-21T03:31:12;5.70;99.90
20973;DHT22;10645;52.370;13.314;2023-11-21T03:33:38;5.70;99.90
20973;DHT22;10645;52.370;13.314;2023-11-21T03:36:04;5.70;99.90
20973;DHT22;10645;52.370;13.314;2023-11-21T03:38:30;5.70;99.90
20973;DHT22;10645;52.370;13.314;2023-11-21T03:40:56;5.70;99.90
20973;DHT22;10645;52.370;13.314;2023-11-21T03:43:22;5.70;99.90
20973;DHT22;10645;52.370;13.314;2023-11-21T03:45:48;5.70;99.90
20973;DHT22;10645;52.370;13.314;2023-11-21T03:48:16;5.70;99.90
20973;DHT22;10645;52.370;13.314;2023-11-21T03:50:42;5.70;99.90
20973;DHT22;10645;52.370;13.314;2023-11-21T03:53:08;5.70;99.90
20973;DHT22;10645;52.370;13.314;2023-11-21T03:55:34;5.60;99.90
20973;DHT22;10645;52.370;13.314;2023-11-21T03:58:00;5.60;99.90
20973;DHT22;10645;52.370;13.314;2023-11-21T04:00:27;5.60;99.90
20973;DHT22;10645;52.370;13.314;2023-11-21T04:02:54;5.60;99.90
20973;DHT22;10645;52.370;13.314;2023-11-21T04:05:20;5.60;99.90
20973;DHT22;10645;52.370;13.314;2023-11-21T04:07:49;5.60;99.90
20973;DHT22;10645;52.370;13.314;2023-11-21T04:10:16;5.60;99.90
20973;DHT22;10645;52.370;13.314;2023-11-21T04:12:42;5.60;99.90
20973;DHT22;10645;52.370;13.314;2023-11-21T04:15:09;5.60;99.90
20973;DHT22;10645;52.370;13.314;2023-11-21T04:17:35;5.60;99.90
20973;DHT22;10645;52.370;13.314;2023-11-21T04:20:04;5.50;99.90
20973;DHT22;10645;52.370;13.314;2023-11-21T04:22:39;5.50;99.90
20973;DHT22;10645;52.370;13.314;2023-11-21T04:25:08;5.50;99.90
20973;DHT22;10645;52.370;13.314;2023-11-21T04:27:36;5.50;99.90
20973;DHT22;10645;52.370;13.314;2023-11-21T04:30:02;5.40;99.90
20973;DHT22;10645;52.370;13.314;2023-11-21T04:32:28;5.40;99.90
20973;DHT22;10645;52.370;13.314;2023-11-21T04:34:54;5.40;99.90
20973;DHT22;10645;52.370;13.314;2023-11-21T04:37:20;5.40;99.90
20973;DHT22;10645;52.370;13.314;2023-11-21T04:39:46;5.40;99.90
20973;DHT22;10645;52.370;13.314;2023-11-21T04:43:14;5.30;99.90
20973;DHT22;10645;52.370;13.314;2023-11-21T04:45:40;5.30;99.90
20973;DHT22;10645;52.370;13.314;2023-11-21T04:48:07;5.30;99.90
20973;DHT22;10645;52.370;13.314;2023-11-21T04:50:34;5.30;99.90
20973;DHT22;10645;52.370;13.314;2023-11-21T04:53:00;5.30;99.90
20973;DHT22;10645;52.370;13.314;2023-11-21T04:55:26;5.30;99.90
20973;DHT22;10645;52.370;13.314;2023-11-21T04:57:54;5.30;99.90
20973;DHT22;10645;52.370;13.314;2023-11-21T05:00:20;5.30;99.90
20973;DHT22;10645;52.370;13.314;2023-11-21T05:02:47;5.30;99.90
20973;DHT22;10645;52.370;13.314;2023-11-21T05:05:13;5.30;99.90
20973;DHT22;10645;52.370;13.314;2023-11-21T05:07:40;5.30;99.90
20973;DHT22;10645;52.370;13.314;2023-11-21T05:10:07;5.30;99.90
20973;DHT22;10645;52.370;13.314;2023-11-21T05:12:36;5.30;99.90
20973;DHT22;10645;52.370;13.314;2023-11-21T05:15:06;5.20;99.90
20973;DHT22;10645;52.370;13.314;2023-11-21T05:17:39;5.30;99.90
20973;DHT22;10645;52.370;13.314;2023-11-21T05:20:09;5.30;99.90
20973;DHT22;10645;52.370;13.314;2023-11-21T05:22:36;5.30;99.90
20973;DHT22;10645;52.370;13.314;2023-11-21T05:25:03;5.30;99.90
20973;DHT22;10645;52.370;13.314;2023-11-21T05:27:30;5.30;99.90
20973;DHT22;10645;52.370;13.314;2023-11-21T05:30:01;5.30;99.90
20973;DHT22;10645;52.370;13.314;2023-11-21T05:32:27;5.30;99.90
20973;DHT22;10645;52.370;13.314;2023-11-21T05:34:53;5.30;99.90
20973;DHT22;10645;52.370;13.314;2023-11-21T05:37:19;5.30;99.90
20973;DHT22;10645;52.370;13.314;2023-11-21T05:39:45;5.30;99.90
20973;DHT22;10645;52.370;13.314;2023-11-21T05:42:12;5.30;99.90
20973;DHT22;10645;52.370;13.314;2023-11-21T05:44:42;5.30;99.90
20973;DHT22;10645;52.370;13.314;2023-11-21T05:47:09;5.30;99.90
20973;DHT22;10645;52.370;13.314;2023-11-21T05:49:36;5.20;99.90
20973;DHT22;10645;52.370;13.314;2023-11-21T05:52:02;5.20;99.90
20973;DHT22;10645;52.370;13.314;2023-11-21T05:54:29;5.20;99.90
20973;DHT22;10645;52.370;13.314;2023-11-21T05:56:55;5.20;99.90
20973;DHT22;10645;52.370;13.314;2023-11-21T05:59:21;5.20;99.90
20973;DHT22;10645;52.370;13.314;2023-11-21T06:01:47;5.20;99.90
20973;DHT22;10645;52.370;13.314;2023-11-21T06:04:13;5.20;99.90
20973;DHT22;10645;52.370;13.314;2023-11-21T06:06:39;5.10;99.90
20973;DHT22;10645;52.370;13.314;2023-11-21T06:09:05;5.10;99.90
20973;DHT22;10645;52.370;13.314;2023-11-21T06:11:35;5.10;99.90
20973;DHT22;10645;52.370;13.314;2023-11-21T06:14:01;5.10;99.90
20973;DHT22;10645;52.370;13.314;2023-11-21T06:16:28;5.10;99.90
20973;DHT22;10645;52.370;13.314;2023-11-21T06:18:54;5.10;99.90
20973;DHT22;10645;52.370;13.314;2023-11-21T06:21:20;5.00;99.90
20973;DHT22;10645;52.370;13.314;2023-11-21T06:23:47;5.00;99.90
20973;DHT22;10645;52.370;13.314;2023-11-21T06:26:13;5.00;99.90
20973;DHT22;10645;52.370;13.314;2023-11-21T06:28:40;5.00;99.90
20973;DHT22;10645;52.370;13.314;2023-11-21T06:31:07;5.00;99.90
20973;DHT22;10645;52.370;13.314;2023-11-21T06:33:33;5.00;99.90
20973;DHT22;10645;52.370;13.314;2023-11-21T06:35:59;5.00;99.90
20973;DHT22;10645;52.370;13.314;2023-11-21T06:38:29;5.00;99.90
20973;DHT22;10645;52.370;13.314;2023-11-21T06:40:56;5.00;99.90
20973;DHT22;10645;52.370;13.314;2023-11-21T06:43:24;4.90;99.90
20973;DHT22;10645;52.370;13.314;2023-11-21T06:45:50;4.90;99.90
20973;DHT22;10645;52.370;13.314;2023-11-21T06:48:16;4.90;99.90
20973;DHT22;10645;52.370;13.314;2023-11-21T06:50:43;4.90;99.90
20973;DHT22;10645;52.370;13.314;2023-11-21T06:53:09;4.90;99.90
20973;DHT22;10645;52.370;13.314;2023-11-21T06:55:35;4.90;99.90
20973;DHT22;10645;52.370;13.314;2023-11-21T06:58:01;4.90;99.90
20973;DHT22;10645;52.370;13.314;2023-11-21T07:00:27;4.90;99.90
20973;DHT22;10645;52.370;13.314;2023-11-21T07:02:54;4.90;99.90
20973;DHT22;10645;52.370;13.314;2023-11-21T07:05:23;4.90;99.90
20973;DHT22;10645;52.370;13.314;2023-11-21T07:07:49;4.90;99.90
20973;DHT22;10645;52.370;13.314;2023-11-21T07:10:16;4.90;99.90
20973;DHT22;10645;52.370;13.314;2023-11-21T07:12:42;4.90;99.90
20973;DHT22;10645;52.370;13.314;2023-11-21T07:15:09;4.90;99.90
20973;DHT22;10645;52.370;13.314;2023-11-21T07:17:35;4.90;99.90
20973;DHT22;10645;52.370;13.314;2023-11-21T07:20:03;4.90;99.90
20973;DHT22;10645;52.370;13.314;2023-11-21T07:22:29;4.90;99.90
20973;DHT22;10645;52.370;13.314;2023-11-21T07:24:56;4.90;99.90
20973;DHT22;10645;52.370;13.314;2023-11-21T07:27:24;4.90;99.90
20973;DHT22;10645;52.370;13.314;2023-11-21T07:29:50;4.80;99.90
20973;DHT22;10645;52.370;13.314;2023-11-21T07:32:16;4.80;99.90
20973;DHT22;10645;52.370;13.314;2023-11-21T07:34:43;4.80;99.90
20973;DHT22;10645;52.370;13.314;2023-11-21T07:37:09;4.80;99.90
20973;DHT22;10645;52.370;13.314;2023-11-21T07:39:35;4.80;99.90
20973;DHT22;10645;52.370;13.314;2023-11-21T07:42:02;4.80;99.90
20973;DHT22;10645;52.370;13.314;2023-11-21T07:44:29;4.80;99.90
20973;DHT22;10645;52.370;13.314;2023-11-21T07:46:55;4.80;99.90
20973;DHT22;10645;52.370;13.314;2023-11-21T07:49:24;4.80;99.90
20973;DHT22;10645;52.370;13.314;2023-11-21T07:51:51;4.80;99.90
20973;DHT22;10645;52.370;13.314;2023-11-21T07:54:17;4.80;99.90
20973;DHT22;10645;52.370;13.314;2023-11-21T07:56:43;4.80;99.90
20973;DHT22;10645;52.370;13.314;2023-11-21T07:59:09;4.80;99.90
20973;DHT22;10645;52.370;13.314;2023-11-21T08:01:35;4.80;99.90
20973;DHT22;10645;52.370;13.314;2023-11-21T08:04:01;4.80;99.90
20973;DHT22;10645;52.370;13.314;2023-11-21T08:06:30;4.80;99.90
20973;DHT22;10645;52.370;13.314;2023-11-21T08:08:57;4.80;99.90
20973;DHT22;10645;52.370;13.314;2023-11-21T08:11:23;4.80;99.90
20973;DHT22;10645;52.370;13.314;2023-11-21T08:13:49;4.80;99.90
20973;DHT22;10645;52.370;13.314;2023-11-21T08:16:15;4.80;99.90
20973;DHT22;10645;52.370;13.314;2023-11-21T08:18:42;4.80;99.90
20973;DHT22;10645;52.370;13.314;2023-11-21T08:21:08;4.80;99.90
20973;DHT22;10645;52.370;13.314;2023-11-21T08:23:34;4.80;99.90
20973;DHT22;10645;52.370;13.314;2023-11-21T08:26:00;4.80;99.90
20973;DHT22;10645;52.370;13.314;2023-11-21T08:28:29;4.80;99.90
20973;DHT22;10645;52.370;13.314;2023-11-21T08:30:55;4.80;99.90
20973;DHT22;10645;52.370;13.314;2023-11-21T08:33:21;4.80;99.90
20973;DHT22;10645;52.370;13.314;2023-11-21T08:35:47;4.80;99.90
20973;DHT22;10645;52.370;13.314;2023-11-21T08:38:13;4.90;99.90
20973;DHT22;10645;52.370;13.314;2023-11-21T08:40:39;4.80;99.90
20973;DHT22;10645;52.370;13.314;2023-11-21T08:43:05;4.80;99.90
20973;DHT22;10645;52.370;13.314;2023-11-21T08:45:32;4.80;99.90
20973;DHT22;10645;52.370;13.314;2023-11-21T08:48:03;4.80;99.90
20973;DHT22;10645;52.370;13.314;2023-11-21T08:50:29;4.80;99.90
20973;DHT22;10645;52.370;13.314;2023-11-21T08:52:55;4.80;99.90
20973;DHT22;10645;52.370;13.314;2023-11-21T08:55:21;4.80;99.90
20973;DHT22;10645;52.370;13.314;2023-11-21T08:57:48;4.80;99.90
20973;DHT22;10645;52.370;13.314;2023-11-21T09:00:14;4.80;99.90
20973;DHT22;10645;52.370;13.314;2023-11-21T09:02:43;4.70;99.90
20973;DHT22;10645;52.370;13.314;2023-11-21T09:05:11;4.70;99.90
20973;DHT22;10645;52.370;13.314;2023-11-21T09:07:38;4.70;99.90
20973;DHT22;10645;52.370;13.314;2023-11-21T09:10:05;4.70;99.90
20973;DHT22;10645;52.370;13.314;2023-11-21T09:12:34;4.80;99.90
20973;DHT22;10645;52.370;13.314;2023-11-21T09:15:05;4.70;99.90
20973;DHT22;10645;52.370;13.314;2023-11-21T09:17:32;4.80;99.90
20973;DHT22;10645;52.370;13.314;2023-11-21T09:19:58;4.80;99.90
20973;DHT22;10645;52.370;13.314;2023-11-21T09:22:24;4.80;99.90
20973;DHT22;10645;52.370;13.314;2023-11-21T09:24:51;4.90;99.90
20973;DHT22;10645;52.370;13.314;2023-11-21T09:27:18;4.80;99.90
20973;DHT22;10645;52.370;13.314;2023-11-21T09:29:44;4.90;99.90
20973;DHT22;10645;52.370;13.314;2023-11-21T09:32:11;4.80;99.90
20973;DHT22;10645;52.370;13.314;2023-11-21T09:34:40;4.80;99.90
20973;DHT22;10645;52.370;13.314;2023-11-21T09:37:07;4.80;99.90
20973;DHT22;10645;52.370;13.314;2023-11-21T09:39:34;4.80;99.90
20973;DHT22;10645;52.370;13.314;2023-11-21T09:42:13;4.80;99.90
20973;DHT22;10645;52.370;13.314;2023-11-21T09:44:52;4.70;99.90
20973;DHT22;10645;52.370;13.314;2023-11-21T09:47:22;4.70;99.90
20973;DHT22;10645;52.370;13.314;2023-11-21T09:49:49;4.70;99.90
20973;DHT22;10645;52.370;13.314;2023-11-21T09:52:23;4.70;99.90
20973;DHT22;10645;52.370;13.314;2023-11-21T09:54:52;4.70;99.90
20973;DHT22;10645;52.370;13.314;2023-11-21T09:57:24;4.70;99.90
20973;DHT22;10645;52.370;13.314;2023-11-21T09:59:51;4.70;99.90
20973;DHT22;10645;52.370;13.314;2023-11-21T10:02:25;4.70;99.90
20973;DHT22;10645;52.370;13.314;2023-11-21T10:04:52;4.70;99.90
20973;DHT22;10645;52.370;13.314;2023-11-21T10:07:20;4.70;99.90
20973;DHT22;10645;52.370;13.314;2023-11-21T10:09:47;4.70;99.90
20973;DHT22;10645;52.370;13.314;2023-11-21T10:12:15;4.70;99.90
20973;DHT22;10645;52.370;13.314;2023-11-21T10:14:43;4.70;99.90
20973;DHT22;10645;52.370;13.314;2023-11-21T10:17:11;4.70;99.90
20973;DHT22;10645;52.370;13.314;2023-11-21T10:19:39;4.70;99.90
20973;DHT22;10645;52.370;13.314;2023-11-21T10:22:05;4.70;99.90
20973;DHT22;10645;52.370;13.314;2023-11-21T10:24:33;4.70;99.90
20973;DHT22;10645;52.370;13.314;2023-11-21T10:26:59;4.60;99.90
20973;DHT22;10645;52.370;13.314;2023-11-21T10:29:31;4.60;99.90
20973;DHT22;10645;52.370;13.314;2023-11-21T10:32:04;4.50;99.90
20973;DHT22;10645;52.370;13.314;2023-11-21T10:34:31;4.60;99.90
20973;DHT22;10645;52.370;13.314;2023-11-21T10:36:58;4.60;99.90
20973;DHT22;10645;52.370;13.314;2023-11-21T10:39:24;4.60;99.90
20973;DHT22;10645;52.370;13.314;2023-11-21T10:41:55;4.70;99.90
20973;DHT22;10645;52.370;13.314;2023-11-21T10:44:21;4.70;99.90
20973;DHT22;10645;52.370;13.314;2023-11-21T10:46:51;4.80;99.90
20973;DHT22;10645;52.370;13.314;2023-11-21T10:49:18;4.90;99.90
20973;DHT22;10645;52.370;13.314;2023-11-21T10:51:44;4.90;99.90
20973;DHT22;10645;52.370;13.314;2023-11-21T10:54:11;4.90;99.90
20973;DHT22;10645;52.370;13.314;2023-11-21T10:56:39;4.90;99.90
20973;DHT22;10645;52.370;13.314;2023-11-21T10:59:10;4.80;99.90
20973;DHT22;10645;52.370;13.314;2023-11-21T11:01:42;4.80;99.90
20973;DHT22;10645;52.370;13.314;2023-11-21T11:04:11;4.80;99.90
20973;DHT22;10645;52.370;13.314;2023-11-21T11:06:55;4.90;99.90
20973;DHT22;10645;52.370;13.314;2023-11-21T11:09:23;4.90;99.90
20973;DHT22;10645;52.370;13.314;2023-11-21T11:11:51;5.00;99.90
20973;DHT22;10645;52.370;13.314;2023-11-21T11:14:17;5.00;99.90
20973;DHT22;10645;52.370;13.314;2023-11-21T11:16:45;4.90;99.90
20973;DHT22;10645;52.370;13.314;2023-11-21T11:19:11;4.80;99.90
20973;DHT22;10645;52.370;13.314;2023-11-21T11:22:06;4.70;99.90
20973;DHT22;10645;52.370;13.314;2023-11-21T11:24:54;4.60;99.90
20973;DHT22;10645;52.370;13.314;2023-11-21T11:27:40;4.50;99.90
20973;DHT22;10645;52.370;13.314;2023-11-21T11:30:40;4.50;99.90
20973;DHT22;10645;52.370;13.314;2023-11-21T11:38:22;4.30;99.90
20973;DHT22;10645;52.370;13.314;2023-11-21T11:40:53;4.30;99.90
20973;DHT22;10645;52.370;13.314;2023-11-21T11:43:26;4.30;99.90
20973;DHT22;10645;52.370;13.314;2023-11-21T11:45:56;4.30;99.90
20973;DHT22;10645;52.370;13.314;2023-11-21T11:48:22;4.30;99.90
20973;DHT22;10645;52.370;13.314;2023-11-21T11:51:02;4.20;99.90
20973;DHT22;10645;52.370;13.314;2023-11-21T11:53:41;4.20;99.90
20973;DHT22;10645;52.370;13.314;2023-11-21T11:56:25;4.30;99.90
20973;DHT22;10645;52.370;13.314;2023-11-21T11:58:57;4.30;99.90
20973;DHT22;10645;52.370;13.314;2023-11-21T12:01:25;4.20;99.90
20973;DHT22;10645;52.370;13.314;2023-11-21T12:07:00;4.20;99.90
20973;DHT22;10645;52.370;13.314;2023-11-21T12:09:31;4.10;99.90
20973;DHT22;10645;52.370;13.314;2023-11-21T12:11:58;4.20;99.90
20973;DHT22;10645;52.370;13.314;2023-11-21T12:14:24;4.10;99.90
20973;DHT22;10645;52.370;13.314;2023-11-21T12:16:51;4.10;99.90
20973;DHT22;10645;52.370;13.314;2023-11-21T12:19:17;4.10;99.90
20973;DHT22;10645;52.370;13.314;2023-11-21T12:21:44;4.10;99.90
20973;DHT22;10645;52.370;13.314;2023-11-21T12:24:10;4.10;99.90
20973;DHT22;10645;52.370;13.314;2023-11-21T12:26:40;4.10;99.90
20973;DHT22;10645;52.370;13.314;2023-11-21T12:29:06;4.10;99.90
20973;DHT22;10645;52.370;13.314;2023-11-21T12:31:34;4.10;99.90
20973;DHT22;10645;52.370;13.314;2023-11-21T12:34:03;4.10;99.90
20973;DHT22;10645;52.370;13.314;2023-11-21T12:36:31;4.10;99.90
20973;DHT22;10645;52.370;13.314;2023-11-21T12:38:57;4.10;99.90
20973;DHT22;10645;52.370;13.314;2023-11-21T12:41:23;4.00;99.90
20973;DHT22;10645;52.370;13.314;2023-11-21T12:43:49;4.10;99.90
20973;DHT22;10645;52.370;13.314;2023-11-21T12:46:15;4.10;99.90
20973;DHT22;10645;52.370;13.314;2023-11-21T12:48:44;4.00;99.90
20973;DHT22;10645;52.370;13.314;2023-11-21T12:51:12;4.10;99.90
20973;DHT22;10645;52.370;13.314;2023-11-21T12:53:40;4.10;99.90
20973;DHT22;10645;52.370;13.314;2023-11-21T12:56:16;4.10;99.90
20973;DHT22;10645;52.370;13.314;2023-11-21T12:58:44;4.00;99.90
20973;DHT22;10645;52.370;13.314;2023-11-21T13:01:13;4.00;99.90
20973;DHT22;10645;52.370;13.314;2023-11-21T13:03:47;3.90;99.90
20973;DHT22;10645;52.370;13.314;2023-11-21T13:06:15;3.90;99.90
20973;DHT22;10645;52.370;13.314;2023-11-21T13:08:44;3.90;99.90
20973;DHT22;10645;52.370;13.314;2023-11-21T13:11:11;3.90;99.90
20973;DHT22;10645;52.370;13.314;2023-11-21T13:13:40;4.00;99.90
20973;DHT22;10645;52.370;13.314;2023-11-21T13:16:07;4.00;99.90
20973;DHT22;10645;52.370;13.314;2023-11-21T13:18:34;4.00;99.90
20973;DHT22;10645;52.370;13.314;2023-11-21T13:21:02;3.90;99.90
20973;DHT22;10645;52.370;13.314;2023-11-21T13:23:35;3.90;99.90
20973;DHT22;10645;52.370;13.314;2023-11-21T13:26:03;4.00;99.90
20973;DHT22;10645;52.370;13.314;2023-11-21T13:28:30;4.10;99.90
20973;DHT22;10645;52.370;13.314;2023-11-21T13:31:00;4.10;99.90
20973;DHT22;10645;52.370;13.314;2023-11-21T13:33:29;4.10;99.90
20973;DHT22;10645;52.370;13.314;2023-11-21T13:35:56;4.10;99.90
20973;DHT22;10645;52.370;13.314;2023-11-21T13:38:22;4.00;99.90
20973;DHT22;10645;52.370;13.314;2023-11-21T13:40:50;3.90;99.90
20973;DHT22;10645;52.370;13.314;2023-11-21T13:43:21;3.90;99.90
20973;DHT22;10645;52.370;13.314;2023-11-21T13:45:49;3.90;99.90
20973;DHT22;10645;52.370;13.314;2023-11-21T13:48:25;3.90;99.90
20973;DHT22;10645;52.370;13.314;2023-11-21T13:50:54;3.90;99.90
20973;DHT22;10645;52.370;13.314;2023-11-21T13:53:39;3.90;99.90
20973;DHT22;10645;52.370;13.314;2023-11-21T13:56:07;4.00;99.90
20973;DHT22;10645;52.370;13.314;2023-11-21T13:58:34;4.00;99.90
20973;DHT22;10645;52.370;13.314;2023-11-21T14:01:24;3.90;99.90
20973;DHT22;10645;52.370;13.314;2023-11-21T14:04:08;3.90;99.90
20973;DHT22;10645;52.370;13.314;2023-11-21T14:06:49;3.90;99.90
20973;DHT22;10645;52.370;13.314;2023-11-21T14:09:18;3.80;99.90
20973;DHT22;10645;52.370;13.314;2023-11-21T14:11:55;3.70;99.90
20973;DHT22;10645;52.370;13.314;2023-11-21T14:14:27;3.70;99.90
20973;DHT22;10645;52.370;13.314;2023-11-21T14:16:56;3.60;99.90
20973;DHT22;10645;52.370;13.314;2023-11-21T14:19:25;3.60;99.90
20973;DHT22;10645;52.370;13.314;2023-11-21T14:21:58;3.50;99.90
20973;DHT22;10645;52.370;13.314;2023-11-21T14:24:24;3.50;99.90
20973;DHT22;10645;52.370;13.314;2023-11-21T14:26:51;3.50;99.90
20973;DHT22;10645;52.370;13.314;2023-11-21T14:29:18;3.50;99.90
20973;DHT22;10645;52.370;13.314;2023-11-21T14:31:49;3.40;99.90
20973;DHT22;10645;52.370;13.314;2023-11-21T14:34:22;3.30;99.90
20973;DHT22;10645;52.370;13.314;2023-11-21T14:36:50;3.30;99.90
20973;DHT22;10645;52.370;13.314;2023-11-21T14:39:17;3.30;99.90
20973;DHT22;10645;52.370;13.314;2023-11-21T14:41:50;3.30;99.90
20973;DHT22;10645;52.370;13.314;2023-11-21T14:44:16;3.20;99.90
20973;DHT22;10645;52.370;13.314;2023-11-21T14:46:43;3.10;99.90
20973;DHT22;10645;52.370;13.314;2023-11-21T14:49:13;3.10;99.90
20973;DHT22;10645;52.370;13.314;2023-11-21T14:51:53;3.00;99.90
20973;DHT22;10645;52.370;13.314;2023-11-21T14:54:29;3.00;99.90
20973;DHT22;10645;52.370;13.314;2023-11-21T14:57:13;3.00;99.90
20973;DHT22;10645;52.370;13.314;2023-11-21T14:59:45;3.00;99.90
20973;DHT22;10645;52.370;13.314;2023-11-21T15:02:18;2.90;99.90
20973;DHT22;10645;52.370;13.314;2023-11-21T15:04:53;2.90;99.90
20973;DHT22;10645;52.370;13.314;2023-11-21T15:07:27;2.90;99.90
20973;DHT22;10645;52.370;13.314;2023-11-21T15:09:53;2.90;99.90
20973;DHT22;10645;52.370;13.314;2023-11-21T15:12:19;2.90;99.90
20973;DHT22;10645;52.370;13.314;2023-11-21T15:14:50;2.80;99.90
20973;DHT22;10645;52.370;13.314;2023-11-21T15:17:19;2.80;99.90
20973;DHT22;10645;52.370;13.314;2023-11-21T15:19:52;2.80;99.90
20973;DHT22;10645;52.370;13.314;2023-11-21T15:22:18;2.80;99.90
20973;DHT22;10645;52.370;13.314;2023-11-21T15:24:44;2.80;99.90
20973;DHT22;10645;52.370;13.314;2023-11-21T15:27:13;2.70;99.90
20973;DHT22;10645;52.370;13.314;2023-11-21T15:29:39;2.80;99.90
20973;DHT22;10645;52.370;13.314;2023-11-21T15:32:07;2.70;99.90
20973;DHT22;10645;52.370;13.314;2023-11-21T15:34:35;2.70;99.90
20973;DHT22;10645;52.370;13.314;2023-11-21T15:37:02;2.60;99.90
20973;DHT22;10645;52.370;13.314;2023-11-21T15:39:29;2.60;99.90
20973;DHT22;10645;52.370;13.314;2023-11-21T15:41:57;2.70;99.90
20973;DHT22;10645;52.370;13.314;2023-11-21T15:44:24;2.60;99.90